Time;durP1;ratioP1;P1;durP2;ratioP2;P2;SDS_P1;SDS_P2;PMS_P1;PMS_P2;Temp;Humidity;BMP_temperature;BMP_pressure;BME280_temperature;BME280_humidity;BME280_pressure;Samples;Min_cycle;Max_cycle;Signal;HPM_P1;HPM_P2
2023/03/18 00:01:17;;;;;;;1.42;1.33;;;;;;;;;;5135147;27;20126;-66
2023/03/18 00:03:44;;;;;;;1.70;1.60;;;;;;;;;;5134385;27;20039;-65
2023/03/18 00:06:12;;;;;;;1.70;1.60;;;;;;;;;;5133619;27;20038;-65
2023/03/18 00:08:39;;;;;;;1.50;1.40;;;;;;;;;;5132826;27;20146;-66
2023/03/18 00:11:06;;;;;;;1.88;1.50;;;;;;;;;;5135048;27;20046;-66
2023/03/18 00:13:33;;;;;;;1.67;1.40;;;;;;;;;;5134050;27;20043;-65
2023/03/18 00:16:00;;;;;;;1.55;1.45;;;;;;;;;;5133138;27;20532;-65
2023/03/18 00:18:26;;;;;;;3.13;2.22;;;;;;;;;;5113706;27;20405;-65
2023/03/18 00:20:52;;;;;;;2.47;1.60;;;;;;;;;;5131970;27;20031;-67
2023/03/18 00:23:20;;;;;;;2.55;2.30;;;;;;;;;;5135903;27;20759;-65
2023/03/18 00:25:47;;;;;;;2.53;2.33;;;;;;;;;;5132904;27;20047;-65
2023/03/18 00:28:13;;;;;;;2.15;1.95;;;;;;;;;;5134647;27;20492;-65
2023/03/18 00:30:40;;;;;;;1.95;1.85;;;;;;;;;;5135058;27;20055;-65
2023/03/18 00:33:07;;;;;;;3.13;1.90;;;;;;;;;;5137746;27;20064;-65
2023/03/18 00:35:33;;;;;;;3.75;1.98;;;;;;;;;;5133504;27;20542;-66
2023/03/18 00:37:59;;;;;;;2.15;2.00;;;;;;;;;;5135749;27;20176;-65
2023/03/18 00:40:29;;;;;;;2.13;1.95;;;;;;;;;;5117615;27;20169;-66
2023/03/18 00:43:06;;;;;;;3.03;2.78;;;;;;;;;;5134315;27;20173;-65
2023/03/18 00:45:34;;;;;;;3.53;2.88;;;;;;;;;;5134609;27;20079;-65
2023/03/18 00:48:00;;;;;;;4.28;3.88;;;;;;;;;;5135070;27;20118;-66
2023/03/18 00:50:26;;;;;;;4.45;4.03;;;;;;;;;;5134859;27;20130;-65
2023/03/18 00:52:52;;;;;;;5.60;4.72;;;;;;;;;;5134466;27;20081;-65
2023/03/18 00:55:19;;;;;;;7.82;5.43;;;;;;;;;;5135703;27;20428;-65
2023/03/18 00:57:45;;;;;;;6.10;5.50;;;;;;;;;;5133340;27;20103;-66
2023/03/18 01:00:15;;;;;;;6.80;5.35;;;;;;;;;;5134422;27;20039;-65
2023/03/18 01:02:41;;;;;;;6.70;6.00;;;;;;;;;;5133509;27;20402;-65
2023/03/18 01:05:08;;;;;;;7.88;6.28;;;;;;;;;;5133517;27;20047;-65
2023/03/18 01:07:35;;;;;;;7.45;6.13;;;;;;;;;;5133087;27;20043;-65
2023/03/18 01:10:01;;;;;;;7.03;5.75;;;;;;;;;;5134672;27;20047;-65
2023/03/18 01:12:27;;;;;;;7.25;6.50;;;;;;;;;;5114403;27;20122;-65
2023/03/18 01:14:53;;;;;;;9.65;7.28;;;;;;;;;;5133662;27;20596;-65
2023/03/18 01:17:19;;;;;;;10.20;7.40;;;;;;;;;;5132826;27;20393;-65
2023/03/18 01:19:47;;;;;;;9.65;8.65;;;;;;;;;;5133740;27;20049;-66
2023/03/18 01:22:13;;;;;;;9.63;8.57;;;;;;;;;;5133808;27;20541;-66
2023/03/18 01:24:39;;;;;;;10.23;8.38;;;;;;;;;;5132950;27;20058;-65
2023/03/18 01:27:06;;;;;;;9.77;8.30;;;;;;;;;;5133874;27;20038;-65
2023/03/18 01:29:32;;;;;;;10.15;8.20;;;;;;;;;;5133569;27;20055;-66
2023/03/18 01:31:59;;;;;;;7.68;6.90;;;;;;;;;;5115482;27;20135;-65
2023/03/18 01:34:25;;;;;;;8.13;6.28;;;;;;;;;;5134832;27;20075;-65
2023/03/18 01:36:52;;;;;;;6.93;6.22;;;;;;;;;;5133304;27;20043;-65
2023/03/18 01:39:18;;;;;;;5.75;5.20;;;;;;;;;;5132767;27;20047;-65
2023/03/18 01:41:45;;;;;;;7.85;7.00;;;;;;;;;;5132488;27;20046;-65
2023/03/18 01:44:16;;;;;;;6.93;6.07;;;;;;;;;;5133768;27;20043;-65
2023/03/18 01:46:46;;;;;;;7.80;7.03;;;;;;;;;;5131111;27;20046;-66
2023/03/18 01:49:14;;;;;;;7.93;6.97;;;;;;;;;;5133489;27;20114;-65
2023/03/18 01:51:43;;;;;;;6.80;5.53;;;;;;;;;;5132841;27;20051;-65
2023/03/18 01:54:11;;;;;;;9.20;7.45;;;;;;;;;;5133597;27;20043;-65
2023/03/18 01:56:38;;;;;;;9.35;8.40;;;;;;;;;;5134364;27;20043;-65
2023/03/18 01:59:04;;;;;;;10.07;8.73;;;;;;;;;;5134295;27;20421;-64
2023/03/18 02:01:33;;;;;;;11.50;9.05;;;;;;;;;;5132877;27;20374;-65
2023/03/18 02:04:01;;;;;;;12.20;9.65;;;;;;;;;;5134783;27;20046;-65
2023/03/18 02:06:28;;;;;;;14.75;10.48;;;;;;;;;;5134683;27;20041;-65
2023/03/18 02:08:54;;;;;;;9.98;8.60;;;;;;;;;;5133995;27;20124;-66
2023/03/18 02:11:22;;;;;;;8.73;7.60;;;;;;;;;;5135279;27;20043;-67
2023/03/18 02:13:48;;;;;;;9.75;8.55;;;;;;;;;;5098441;27;20051;-64
2023/03/18 02:16:18;;;;;;;9.32;8.32;;;;;;;;;;5133356;27;20069;-65
2023/03/18 02:18:47;;;;;;;9.75;8.60;;;;;;;;;;5132999;27;20084;-65
2023/03/18 02:21:14;;;;;;;8.68;7.47;;;;;;;;;;5133475;27;20430;-65
2023/03/18 02:23:55;;;;;;;7.63;6.93;;;;;;;;;;5133404;27;20035;-66
2023/03/18 02:26:35;;;;;;;5.57;5.07;;;;;;;;;;5135481;27;20059;-65
2023/03/18 02:29:03;;;;;;;5.10;4.63;;;;;;;;;;5131769;27;20046;-66
2023/03/18 02:31:30;;;;;;;5.45;4.93;;;;;;;;;;5135097;27;20456;-66
2023/03/18 02:33:57;;;;;;;5.57;5.07;;;;;;;;;;5133730;27;20043;-66
2023/03/18 02:36:27;;;;;;;5.63;5.13;;;;;;;;;;5133797;27;20454;-66
2023/03/18 02:38:54;;;;;;;4.78;4.38;;;;;;;;;;5132960;27;20671;-66
2023/03/18 02:41:24;;;;;;;6.30;5.65;;;;;;;;;;5134925;27;20086;-66
2023/03/18 02:43:50;;;;;;;7.03;6.32;;;;;;;;;;5132159;27;20074;-66
2023/03/18 02:46:29;;;;;;;9.93;7.20;;;;;;;;;;5134916;27;20041;-66
2023/03/18 02:48:56;;;;;;;8.38;7.38;;;;;;;;;;5132617;27;20158;-66
2023/03/18 02:51:23;;;;;;;9.07;7.50;;;;;;;;;;5133230;27;20516;-66
2023/03/18 02:53:49;;;;;;;6.95;6.32;;;;;;;;;;5133332;27;20042;-66
2023/03/18 02:56:16;;;;;;;5.43;4.93;;;;;;;;;;5133929;27;20509;-65
2023/03/18 02:58:42;;;;;;;5.85;5.30;;;;;;;;;;5133048;27;20047;-66
2023/03/18 03:01:09;;;;;;;5.97;5.47;;;;;;;;;;5133353;27;20050;-66
2023/03/18 03:03:36;;;;;;;6.47;5.57;;;;;;;;;;5132660;27;20090;-65
2023/03/18 03:06:03;;;;;;;7.18;5.95;;;;;;;;;;5132674;27;20079;-68
2023/03/18 03:08:29;;;;;;;4.45;4.05;;;;;;;;;;5134463;27;20059;-66
2023/03/18 03:10:55;;;;;;;6.45;4.97;;;;;;;;;;5132885;27;20036;-66
2023/03/18 03:13:22;;;;;;;6.60;5.40;;;;;;;;;;5134362;27;20047;-66
2023/03/18 03:15:48;;;;;;;7.82;7.03;;;;;;;;;;5132929;27;20090;-66
2023/03/18 03:18:15;;;;;;;7.30;6.60;;;;;;;;;;5133032;27;20497;-66
2023/03/18 03:20:42;;;;;;;6.25;5.50;;;;;;;;;;5114011;27;20077;-65
2023/03/18 03:23:10;;;;;;;5.10;4.60;;;;;;;;;;5132918;27;20043;-65
2023/03/18 03:25:36;;;;;;;4.38;4.05;;;;;;;;;;5133004;27;20478;-65
2023/03/18 03:28:03;;;;;;;5.22;4.72;;;;;;;;;;5137137;27;20159;-66
2023/03/18 03:30:29;;;;;;;4.55;4.15;;;;;;;;;;5137104;27;20047;-66
2023/03/18 03:32:55;;;;;;;4.22;3.83;;;;;;;;;;5136550;27;20077;-66
2023/03/18 03:35:22;;;;;;;5.60;5.10;;;;;;;;;;5138216;27;20521;-66
2023/03/18 03:37:48;;;;;;;7.63;6.93;;;;;;;;;;5117868;27;20047;-66
2023/03/18 03:40:15;;;;;;;10.40;8.25;;;;;;;;;;5137117;27;20047;-65
2023/03/18 03:42:42;;;;;;;8.73;7.82;;;;;;;;;;5136323;27;20043;-65
2023/03/18 03:45:08;;;;;;;7.78;6.90;;;;;;;;;;5135115;27;20217;-66
2023/03/18 03:47:35;;;;;;;7.78;7.05;;;;;;;;;;5137389;27;20046;-66
2023/03/18 03:50:01;;;;;;;5.80;5.30;;;;;;;;;;5118468;27;20050;-66
2023/03/18 03:52:27;;;;;;;7.47;6.68;;;;;;;;;;5137038;27;20042;-66
2023/03/18 03:54:55;;;;;;;7.55;6.85;;;;;;;;;;5135718;27;20072;-66
2023/03/18 03:57:22;;;;;;;7.90;7.10;;;;;;;;;;5119190;27;20047;-66
2023/03/18 03:59:49;;;;;;;7.13;6.47;;;;;;;;;;5117000;27;20125;-66
2023/03/18 04:02:15;;;;;;;5.43;4.93;;;;;;;;;;5134728;27;20042;-65
2023/03/18 04:04:42;;;;;;;5.43;4.88;;;;;;;;;;5135849;27;20050;-66
2023/03/18 04:07:08;;;;;;;5.75;5.22;;;;;;;;;;5135528;27;20437;-66
2023/03/18 04:09:35;;;;;;;6.35;5.68;;;;;;;;;;5136974;27;20054;-66
2023/03/18 04:12:01;;;;;;;6.78;5.90;;;;;;;;;;5136196;27;20039;-66
2023/03/18 04:14:27;;;;;;;7.22;6.22;;;;;;;;;;5136163;27;20043;-66
2023/03/18 04:16:56;;;;;;;6.10;5.47;;;;;;;;;;5135282;27;20126;-67
2023/03/18 04:19:22;;;;;;;7.03;6.22;;;;;;;;;;5136148;27;20054;-66
2023/03/18 04:21:50;;;;;;;10.10;9.10;;;;;;;;;;5134663;27;20413;-67
2023/03/18 04:24:16;;;;;;;11.82;10.38;;;;;;;;;;5137044;27;20043;-66
2023/03/18 04:26:42;;;;;;;10.88;9.77;;;;;;;;;;5135768;27;20753;-66
2023/03/18 04:29:08;;;;;;;12.20;10.55;;;;;;;;;;5135347;27;20408;-66
2023/03/18 04:31:35;;;;;;;13.32;11.95;;;;;;;;;;5136262;27;20047;-66
2023/03/18 04:34:01;;;;;;;11.13;9.88;;;;;;;;;;5117459;27;20133;-66
2023/03/18 04:36:27;;;;;;;10.60;9.25;;;;;;;;;;5136226;27;20083;-66
2023/03/18 04:38:53;;;;;;;8.68;7.43;;;;;;;;;;5133352;27;20035;-65
2023/03/18 04:41:20;;;;;;;11.38;9.57;;;;;;;;;;5115786;27;20046;-66
2023/03/18 04:43:46;;;;;;;9.23;8.32;;;;;;;;;;5135078;27;20122;-65
2023/03/18 04:46:12;;;;;;;7.07;6.38;;;;;;;;;;5135854;27;20063;-66
2023/03/18 04:48:39;;;;;;;8.25;6.93;;;;;;;;;;5134550;27;20058;-66
2023/03/18 04:51:07;;;;;;;6.85;6.15;;;;;;;;;;5135123;27;20150;-66
2023/03/18 04:53:33;;;;;;;6.82;6.22;;;;;;;;;;5136438;27;20492;-66
2023/03/18 04:55:59;;;;;;;6.07;5.35;;;;;;;;;;5135959;27;20039;-66
2023/03/18 04:58:26;;;;;;;5.35;4.45;;;;;;;;;;5134297;27;20066;-66
2023/03/18 05:00:52;;;;;;;5.53;4.95;;;;;;;;;;5136012;27;20054;-66
2023/03/18 05:03:18;;;;;;;4.40;4.03;;;;;;;;;;5133912;27;20116;-66
2023/03/18 05:05:44;;;;;;;4.45;4.05;;;;;;;;;;5135388;27;20133;-65
2023/03/18 05:08:11;;;;;;;3.80;3.42;;;;;;;;;;5138387;27;20085;-66
2023/03/18 05:10:39;;;;;;;3.67;3.03;;;;;;;;;;5135642;27;20046;-66
2023/03/18 05:13:05;;;;;;;3.50;3.20;;;;;;;;;;5132595;27;20043;-66
2023/03/18 05:15:31;;;;;;;3.95;3.60;;;;;;;;;;5137731;27;20039;-66
2023/03/18 05:17:57;;;;;;;2.90;2.70;;;;;;;;;;5130676;27;20103;-66
2023/03/18 05:20:23;;;;;;;4.15;3.75;;;;;;;;;;5136328;27;20078;-66
2023/03/18 05:22:49;;;;;;;4.18;3.78;;;;;;;;;;5134267;27;20164;-67
2023/03/18 05:25:16;;;;;;;4.13;3.67;;;;;;;;;;5135464;27;20094;-65
2023/03/18 05:27:42;;;;;;;3.92;3.63;;;;;;;;;;5138153;27;20444;-65
2023/03/18 05:30:09;;;;;;;3.50;3.20;;;;;;;;;;5134944;27;20130;-67
2023/03/18 05:32:36;;;;;;;4.03;3.65;;;;;;;;;;5132380;27;20051;-66
2023/03/18 05:35:02;;;;;;;3.03;2.80;;;;;;;;;;5135770;27;20542;-66
2023/03/18 05:37:28;;;;;;;3.53;3.22;;;;;;;;;;5132642;27;20074;-66
2023/03/18 05:39:54;;;;;;;3.45;3.15;;;;;;;;;;5133521;27;20478;-66
2023/03/18 05:42:20;;;;;;;2.90;2.70;;;;;;;;;;5136485;27;20043;-66
2023/03/18 05:44:47;;;;;;;4.75;4.35;;;;;;;;;;5131531;27;20050;-66
2023/03/18 05:47:13;;;;;;;5.32;4.82;;;;;;;;;;5134364;27;20845;-66
2023/03/18 05:49:39;;;;;;;9.20;7.90;;;;;;;;;;5136029;27;20654;-66
2023/03/18 05:52:05;;;;;;;11.65;9.90;;;;;;;;;;5132134;27;20047;-65
2023/03/18 05:54:31;;;;;;;12.85;10.38;;;;;;;;;;5134933;27;20413;-66
2023/03/18 05:56:58;;;;;;;11.30;10.02;;;;;;;;;;5134104;27;20042;-65
2023/03/18 05:59:24;;;;;;;13.70;11.05;;;;;;;;;;5134181;27;20141;-66
2023/03/18 06:01:52;;;;;;;13.80;11.18;;;;;;;;;;5134602;27;20977;-66
2023/03/18 06:04:18;;;;;;;11.95;10.05;;;;;;;;;;5135444;27;20438;-66
2023/03/18 06:06:44;;;;;;;14.23;10.70;;;;;;;;;;5134653;27;20042;-66
2023/03/18 06:09:12;;;;;;;12.38;9.68;;;;;;;;;;5135283;27;20103;-65
2023/03/18 06:11:38;;;;;;;15.77;11.05;;;;;;;;;;5136025;27;20110;-66
2023/03/18 06:14:05;;;;;;;11.60;8.93;;;;;;;;;;5134527;27;20061;-65
2023/03/18 06:16:32;;;;;;;14.82;10.10;;;;;;;;;;5135448;27;20070;-66
2023/03/18 06:18:59;;;;;;;13.98;9.95;;;;;;;;;;5136631;27;20124;-65
2023/03/18 06:21:26;;;;;;;12.18;9.70;;;;;;;;;;5134316;27;20069;-66
2023/03/18 06:23:52;;;;;;;20.02;14.15;;;;;;;;;;5132084;27;20043;-66
2023/03/18 06:26:19;;;;;;;19.73;13.68;;;;;;;;;;5137146;27;20043;-66
2023/03/18 06:28:45;;;;;;;13.70;10.02;;;;;;;;;;5134020;27;20505;-65
2023/03/18 06:31:11;;;;;;;12.27;9.65;;;;;;;;;;5134234;27;20051;-66
2023/03/18 06:33:38;;;;;;;14.35;9.35;;;;;;;;;;5133652;27;20043;-66
2023/03/18 06:36:04;;;;;;;12.88;9.40;;;;;;;;;;5129719;27;20039;-66
2023/03/18 06:38:31;;;;;;;10.55;8.13;;;;;;;;;;5129406;27;20364;-66
2023/03/18 06:40:58;;;;;;;14.98;10.13;;;;;;;;;;5131809;27;20091;-66
2023/03/18 06:43:25;;;;;;;13.70;10.10;;;;;;;;;;5134194;27;20559;-66
2023/03/18 06:45:51;;;;;;;12.38;8.05;;;;;;;;;;5139710;27;20054;-66
2023/03/18 06:48:18;;;;;;;12.65;9.13;;;;;;;;;;5139264;27;20042;-66
2023/03/18 06:50:44;;;;;;;11.20;8.23;;;;;;;;;;5133690;27;20046;-65
2023/03/18 06:53:11;;;;;;;10.98;8.35;;;;;;;;;;5132532;27;20122;-66
2023/03/18 06:55:37;;;;;;;12.10;9.35;;;;;;;;;;5139425;27;20046;-66
2023/03/18 06:58:04;;;;;;;12.50;8.52;;;;;;;;;;5134248;27;20039;-66
2023/03/18 07:00:30;;;;;;;10.65;8.02;;;;;;;;;;5133163;27;20047;-66
2023/03/18 07:02:56;;;;;;;12.07;9.45;;;;;;;;;;5137617;27;20054;-66
2023/03/18 07:05:23;;;;;;;9.35;6.85;;;;;;;;;;5142892;27;20412;-67
2023/03/18 07:07:49;;;;;;;11.07;8.55;;;;;;;;;;5137511;27;20043;-66
2023/03/18 07:10:20;;;;;;;9.98;8.73;;;;;;;;;;5137944;27;20050;-67
2023/03/18 07:12:46;;;;;;;10.18;8.18;;;;;;;;;;5118159;27;20054;-66
2023/03/18 07:15:12;;;;;;;8.70;6.63;;;;;;;;;;5142091;27;20064;-66
2023/03/18 07:17:38;;;;;;;7.07;6.13;;;;;;;;;;5139236;27;20079;-66
2023/03/18 07:20:06;;;;;;;10.25;7.68;;;;;;;;;;5119580;27;20133;-66
2023/03/18 07:22:32;;;;;;;6.60;5.70;;;;;;;;;;5123825;27;20086;-65
2023/03/18 07:24:58;;;;;;;5.90;5.03;;;;;;;;;;5137619;27;20046;-66
2023/03/18 07:27:24;;;;;;;6.25;5.40;;;;;;;;;;5134409;27;20554;-66
2023/03/18 07:29:50;;;;;;;5.57;4.70;;;;;;;;;;5135974;27;20053;-65
2023/03/18 07:32:18;;;;;;;4.90;4.40;;;;;;;;;;5143651;27;20039;-65
2023/03/18 07:34:46;;;;;;;4.25;3.85;;;;;;;;;;5136269;27;20043;-65
2023/03/18 07:37:12;;;;;;;3.83;3.42;;;;;;;;;;5135677;27;20077;-66
2023/03/18 07:39:38;;;;;;;4.72;3.85;;;;;;;;;;5135982;27;20042;-67
2023/03/18 07:42:05;;;;;;;4.82;4.18;;;;;;;;;;5134526;27;20134;-66
2023/03/18 07:44:31;;;;;;;5.40;4.88;;;;;;;;;;5138522;27;20043;-66
2023/03/18 07:46:57;;;;;;;10.23;7.82;;;;;;;;;;5135775;27;20031;-66
2023/03/18 07:49:23;;;;;;;9.20;8.30;;;;;;;;;;5137960;27;20612;-66
2023/03/18 07:51:49;;;;;;;11.45;10.02;;;;;;;;;;5135777;27;20066;-66
2023/03/18 07:54:16;;;;;;;14.85;11.70;;;;;;;;;;5138304;27;20068;-66
2023/03/18 07:56:43;;;;;;;13.13;10.05;;;;;;;;;;5137736;27;20515;-66
2023/03/18 07:59:09;;;;;;;11.00;9.25;;;;;;;;;;5135241;27;20100;-66
2023/03/18 08:01:35;;;;;;;11.73;10.23;;;;;;;;;;5137016;27;20198;-65
2023/03/18 08:04:01;;;;;;;11.48;9.43;;;;;;;;;;5137521;27;20500;-66
2023/03/18 08:06:27;;;;;;;10.48;9.30;;;;;;;;;;5137785;27;20046;-66
2023/03/18 08:08:54;;;;;;;10.68;9.55;;;;;;;;;;5135786;27;20134;-66
2023/03/18 08:11:20;;;;;;;15.30;12.43;;;;;;;;;;5135755;27;20409;-66
2023/03/18 08:13:46;;;;;;;15.27;13.60;;;;;;;;;;5136844;27;20045;-66
2023/03/18 08:16:12;;;;;;;16.30;13.48;;;;;;;;;;5102618;27;20039;-65
2023/03/18 08:18:38;;;;;;;14.85;12.70;;;;;;;;;;5140696;27;20050;-66
2023/03/18 08:21:04;;;;;;;14.55;13.07;;;;;;;;;;5138300;27;20079;-65
2023/03/18 08:23:30;;;;;;;17.77;15.88;;;;;;;;;;5140043;27;20722;-67
2023/03/18 08:25:56;;;;;;;15.98;13.88;;;;;;;;;;5139600;27;20043;-66
2023/03/18 08:28:22;;;;;;;13.27;10.77;;;;;;;;;;5136166;27;20393;-66
2023/03/18 08:30:52;;;;;;;12.38;11.15;;;;;;;;;;5139888;27;20661;-66
2023/03/18 08:33:18;;;;;;;16.45;13.80;;;;;;;;;;5133771;27;20043;-67
2023/03/18 08:35:45;;;;;;;15.07;11.95;;;;;;;;;;5135042;27;20049;-66
2023/03/18 08:38:11;;;;;;;12.13;10.93;;;;;;;;;;5138622;27;20406;-66
2023/03/18 08:40:40;;;;;;;12.65;10.43;;;;;;;;;;5137954;27;20765;-66
2023/03/18 08:43:06;;;;;;;13.45;11.18;;;;;;;;;;5138654;27;20080;-66
2023/03/18 08:45:32;;;;;;;12.65;11.25;;;;;;;;;;5142038;27;20046;-66
2023/03/18 08:47:59;;;;;;;10.65;9.55;;;;;;;;;;5139851;27;20046;-66
2023/03/18 08:50:27;;;;;;;10.63;9.60;;;;;;;;;;5136225;27;20047;-66
2023/03/18 08:52:55;;;;;;;15.27;10.50;;;;;;;;;;5138073;27;20440;-66
2023/03/18 08:55:21;;;;;;;8.57;7.68;;;;;;;;;;5137043;27;20057;-66
2023/03/18 08:57:48;;;;;;;11.43;9.25;;;;;;;;;;5138204;27;20051;-66
2023/03/18 09:00:15;;;;;;;10.55;9.55;;;;;;;;;;5142120;27;20441;-66
2023/03/18 09:02:41;;;;;;;10.38;9.38;;;;;;;;;;5141193;27;20047;-66
2023/03/18 09:05:07;;;;;;;13.35;10.95;;;;;;;;;;5146341;27;20087;-66
2023/03/18 09:07:33;;;;;;;12.32;11.02;;;;;;;;;;5144272;27;20085;-67
2023/03/18 09:09:59;;;;;;;11.60;10.43;;;;;;;;;;5141494;27;20050;-66
2023/03/18 09:12:25;;;;;;;8.70;7.90;;;;;;;;;;5137029;27;20039;-66
2023/03/18 09:14:51;;;;;;;7.03;6.32;;;;;;;;;;5138074;27;20608;-66
2023/03/18 09:17:17;;;;;;;8.70;7.80;;;;;;;;;;5140056;27;20039;-66
2023/03/18 09:19:43;;;;;;;10.23;9.15;;;;;;;;;;5131910;27;20085;-66
2023/03/18 09:22:10;;;;;;;9.45;8.25;;;;;;;;;;5141721;27;20034;-66
2023/03/18 09:24:36;;;;;;;8.40;7.47;;;;;;;;;;5139828;27;20043;-66
2023/03/18 09:27:02;;;;;;;8.20;7.43;;;;;;;;;;5124688;27;20497;-66
2023/03/18 09:29:28;;;;;;;9.05;8.15;;;;;;;;;;5123938;27;20057;-66
2023/03/18 09:31:54;;;;;;;13.90;11.95;;;;;;;;;;5134785;27;20050;-64
2023/03/18 09:34:21;;;;;;;18.40;16.58;;;;;;;;;;5137083;27;20424;-64
2023/03/18 09:36:49;;;;;;;19.75;17.38;;;;;;;;;;5127897;27;20076;-59
2023/03/18 09:39:17;;;;;;;20.52;17.90;;;;;;;;;;5143891;27;20070;-63
2023/03/18 09:42:01;;;;;;;19.58;16.85;;;;;;;;;;5131355;27;20047;-62
2023/03/18 09:44:32;;;;;;;16.38;14.65;;;;;;;;;;5147157;27;20123;-65
2023/03/18 09:47:17;;;;;;;17.70;15.52;;;;;;;;;;5140628;27;20047;-65
2023/03/18 09:50:04;;;;;;;20.23;17.35;;;;;;;;;;5138507;27;20030;-65
2023/03/18 09:52:33;;;;;;;21.58;18.30;;;;;;;;;;5153668;27;20047;-65
2023/03/18 09:55:16;;;;;;;23.58;18.90;;;;;;;;;;5138624;27;20070;-65
2023/03/18 09:57:45;;;;;;;21.08;18.88;;;;;;;;;;5149504;27;20045;-65
2023/03/18 10:00:23;;;;;;;23.48;19.77;;;;;;;;;;5150186;27;20068;-65
2023/03/18 10:03:04;;;;;;;24.13;19.13;;;;;;;;;;5136196;27;20054;-65
2023/03/18 10:05:33;;;;;;;21.48;19.40;;;;;;;;;;5143086;27;20544;-65
2023/03/18 10:08:03;;;;;;;18.73;16.00;;;;;;;;;;5140381;27;20153;-65
2023/03/18 10:10:34;;;;;;;23.52;19.45;;;;;;;;;;5134681;27;20054;-65
2023/03/18 10:13:09;;;;;;;21.27;18.63;;;;;;;;;;5158363;27;20084;-64
2023/03/18 10:15:44;;;;;;;19.13;17.10;;;;;;;;;;5158626;27;20072;-65
2023/03/18 10:18:12;;;;;;;18.45;15.35;;;;;;;;;;5154128;27;20650;-65
2023/03/18 10:20:47;;;;;;;20.65;18.55;;;;;;;;;;5147094;27;20051;-64
2023/03/18 10:23:23;;;;;;;18.77;16.70;;;;;;;;;;5146639;27;20039;-65
2023/03/18 10:25:53;;;;;;;14.30;12.85;;;;;;;;;;5147734;27;20125;-64
2023/03/18 10:28:19;;;;;;;14.50;13.00;;;;;;;;;;5150557;27;20046;-65
2023/03/18 10:30:53;;;;;;;14.75;13.05;;;;;;;;;;5148128;27;20038;-65
2023/03/18 10:33:22;;;;;;;17.92;15.27;;;;;;;;;;5152210;27;20042;-65
2023/03/18 10:35:51;;;;;;;17.05;15.25;;;;;;;;;;5146839;27;20035;-65
2023/03/18 10:38:26;;;;;;;14.57;13.07;;;;;;;;;;5149186;27;20043;-65
2023/03/18 10:40:53;;;;;;;16.67;13.52;;;;;;;;;;5144200;27;20041;-65
2023/03/18 10:43:21;;;;;;;21.58;16.60;;;;;;;;;;5149065;27;20049;-65
2023/03/18 10:45:48;;;;;;;18.25;14.48;;;;;;;;;;5149310;27;20047;-65
2023/03/18 10:48:29;;;;;;;17.63;14.35;;;;;;;;;;5146321;27;20050;-65
2023/03/18 10:50:55;;;;;;;12.75;11.45;;;;;;;;;;5144694;27;20117;-65
2023/03/18 10:53:30;;;;;;;14.77;13.25;;;;;;;;;;5152303;27;20070;-65
2023/03/18 10:55:56;;;;;;;14.70;12.52;;;;;;;;;;5141506;27;20039;-65
2023/03/18 10:58:22;;;;;;;18.63;15.77;;;;;;;;;;5150593;27;20034;-65
2023/03/18 11:00:50;;;;;;;17.67;13.73;;;;;;;;;;5146631;27;20081;-65
2023/03/18 11:03:31;;;;;;;16.58;13.93;;;;;;;;;;5148876;27;20042;-66
2023/03/18 11:05:58;;;;;;;16.08;14.13;;;;;;;;;;5138198;27;20035;-66
2023/03/18 11:08:35;;;;;;;19.38;16.00;;;;;;;;;;5129042;27;20054;-66
2023/03/18 11:11:13;;;;;;;17.42;14.88;;;;;;;;;;5127175;27;20054;-65
2023/03/18 11:13:45;;;;;;;16.02;13.77;;;;;;;;;;5146374;27;20047;-65
2023/03/18 11:16:19;;;;;;;16.98;13.35;;;;;;;;;;5145052;27;20092;-65
2023/03/18 11:18:46;;;;;;;13.02;11.27;;;;;;;;;;5146449;27;20039;-65
2023/03/18 11:21:12;;;;;;;11.55;10.07;;;;;;;;;;5147953;27;20518;-65
2023/03/18 11:23:47;;;;;;;12.80;10.70;;;;;;;;;;5149503;27;20053;-64
2023/03/18 11:26:24;;;;;;;14.70;11.57;;;;;;;;;;5155233;27;20043;-64
2023/03/18 11:28:54;;;;;;;11.10;9.38;;;;;;;;;;5139072;27;20054;-65
2023/03/18 11:31:20;;;;;;;9.60;8.52;;;;;;;;;;5149219;27;20042;-65
2023/03/18 11:33:46;;;;;;;8.75;7.82;;;;;;;;;;5150421;27;20450;-65
2023/03/18 11:36:18;;;;;;;8.65;7.85;;;;;;;;;;5143781;27;20035;-65
2023/03/18 11:38:55;;;;;;;7.75;6.93;;;;;;;;;;5144215;27;20043;-65
2023/03/18 11:41:24;;;;;;;7.47;6.88;;;;;;;;;;5149893;27;20533;-65
2023/03/18 11:44:13;;;;;;;10.65;8.48;;;;;;;;;;5129566;27;20108;-65
2023/03/18 11:46:49;;;;;;;10.20;8.07;;;;;;;;;;5125529;28;20450;-65
2023/03/18 11:49:17;;;;;;;6.05;5.28;;;;;;;;;;5129323;27;20047;-64
2023/03/18 11:52:02;;;;;;;7.75;5.82;;;;;;;;;;5142868;27;20045;-63
2023/03/18 11:54:42;;;;;;;7.70;6.90;;;;;;;;;;5149408;27;20129;-64
2023/03/18 11:57:15;;;;;;;7.93;6.60;;;;;;;;;;5154023;27;20046;-64
2023/03/18 11:59:53;;;;;;;7.45;6.22;;;;;;;;;;5157516;27;20696;-64
2023/03/18 12:02:30;;;;;;;5.10;4.60;;;;;;;;;;5149994;27;20150;-65
2023/03/18 12:05:00;;;;;;;6.55;5.93;;;;;;;;;;5155320;27;20710;-63
2023/03/18 12:07:46;;;;;;;13.02;9.02;;;;;;;;;;5147971;27;20067;-64
2023/03/18 12:10:19;;;;;;;8.43;7.55;;;;;;;;;;5150672;27;20062;-63
2023/03/18 12:12:48;;;;;;;9.25;8.30;;;;;;;;;;5147264;27;20049;-63
2023/03/18 12:15:20;;;;;;;9.20;8.30;;;;;;;;;;5134075;27;20821;-61
2023/03/18 12:17:49;;;;;;;9.52;8.40;;;;;;;;;;5136706;27;20493;-65
2023/03/18 12:20:24;;;;;;;7.78;6.97;;;;;;;;;;5139920;27;20039;-65
2023/03/18 12:23:05;;;;;;;7.40;6.13;;;;;;;;;;5145295;27;20043;-65
2023/03/18 12:25:31;;;;;;;6.32;5.72;;;;;;;;;;5143400;27;20055;-65
2023/03/18 12:28:14;;;;;;;6.45;5.85;;;;;;;;;;5134462;27;20050;-65
2023/03/18 12:31:01;;;;;;;6.63;5.90;;;;;;;;;;5149075;27;20393;-65
2023/03/18 12:33:36;;;;;;;8.63;7.03;;;;;;;;;;5119682;27;20044;-65
2023/03/18 12:36:08;;;;;;;7.97;6.95;;;;;;;;;;5146958;27;20054;-65
2023/03/18 12:38:42;;;;;;;6.63;5.72;;;;;;;;;;5143514;27;20413;-65
2023/03/18 12:41:13;;;;;;;6.65;6.03;;;;;;;;;;5146355;27;20054;-65
2023/03/18 12:43:50;;;;;;;5.75;5.10;;;;;;;;;;5152418;27;20142;-65
2023/03/18 12:46:33;;;;;;;5.53;5.05;;;;;;;;;;5156910;27;20046;-65
2023/03/18 12:48:59;;;;;;;4.60;4.20;;;;;;;;;;5147585;27;20047;-65
2023/03/18 12:51:27;;;;;;;5.00;4.50;;;;;;;;;;5158933;27;20078;-65
2023/03/18 12:53:55;;;;;;;6.68;5.07;;;;;;;;;;5143487;27;20054;-65
2023/03/18 12:56:27;;;;;;;6.50;5.20;;;;;;;;;;5133993;27;20043;-65
2023/03/18 12:59:11;;;;;;;4.53;4.13;;;;;;;;;;5135350;27;20584;-65
2023/03/18 13:01:44;;;;;;;4.20;3.70;;;;;;;;;;5143475;27;20038;-65
2023/03/18 13:04:10;;;;;;;;;;;;;;;;;;5141627;27;20091;-65
2023/03/18 13:06:36;;;;;;;10.35;7.47;;;;;;;;;;5137711;27;19923;-64
2023/03/18 13:09:23;;;;;;;6.38;5.78;;;;;;;;;;5122174;27;20043;-65
2023/03/18 13:12:04;;;;;;;5.28;4.78;;;;;;;;;;5138742;27;20049;-65
2023/03/18 13:14:43;;;;;;;4.45;4.05;;;;;;;;;;5133254;27;20493;-65
2023/03/18 13:17:14;;;;;;;4.50;4.05;;;;;;;;;;5135689;27;20043;-65
2023/03/18 13:19:41;;;;;;;5.55;4.82;;;;;;;;;;5131676;27;20050;-65
2023/03/18 13:22:14;;;;;;;5.80;5.25;;;;;;;;;;5114746;27;20163;-65
2023/03/18 13:24:45;;;;;;;5.20;4.80;;;;;;;;;;5142400;27;20106;-65
2023/03/18 13:27:30;;;;;;;5.07;4.55;;;;;;;;;;5135009;27;20092;-66
2023/03/18 13:30:09;;;;;;;5.45;4.95;;;;;;;;;;5134621;27;20138;-65
2023/03/18 13:32:58;;;;;;;5.40;4.90;;;;;;;;;;5137661;27;20103;-65
2023/03/18 13:35:27;;;;;;;4.95;4.35;;;;;;;;;;5134396;27;20486;-65
2023/03/18 13:38:01;;;;;;;5.72;5.20;;;;;;;;;;5129684;27;20039;-66
2023/03/18 13:40:46;;;;;;;5.75;5.13;;;;;;;;;;5129582;27;20175;-65
2023/03/18 13:43:14;;;;;;;6.32;5.43;;;;;;;;;;5133139;27;20042;-65
2023/03/18 13:45:42;;;;;;;5.20;4.38;;;;;;;;;;5132754;27;20055;-65
2023/03/18 13:48:11;;;;;;;6.35;4.70;;;;;;;;;;5131554;27;20039;-65
2023/03/18 13:50:42;;;;;;;4.90;4.43;;;;;;;;;;5139524;27;20366;-65
2023/03/18 13:53:26;;;;;;;3.47;3.15;;;;;;;;;;5130885;27;20126;-65
2023/03/18 13:56:02;;;;;;;3.70;3.20;;;;;;;;;;5140326;27;20051;-66
2023/03/18 13:58:29;;;;;;;3.55;3.03;;;;;;;;;;5129738;27;20125;-66
2023/03/18 14:00:55;;;;;;;2.95;2.72;;;;;;;;;;5134121;27;20089;-66
2023/03/18 14:03:29;;;;;;;3.65;2.70;;;;;;;;;;5139763;27;20388;-65
2023/03/18 14:06:05;;;;;;;3.28;2.97;;;;;;;;;;5130181;27;20111;-65
2023/03/18 14:08:37;;;;;;;3.10;2.78;;;;;;;;;;5134431;27;20062;-65
2023/03/18 14:11:16;;;;;;;2.42;2.22;;;;;;;;;;5144732;27;20409;-65
2023/03/18 14:13:48;;;;;;;1.92;1.77;;;;;;;;;;5147553;27;20050;-65
2023/03/18 14:16:18;;;;;;;;;;;;;;;;;;5139252;27;20038;-65
2023/03/18 14:18:44;;;;;;;2.30;1.60;;;;;;;;;;5141465;27;20013;-65
2023/03/18 14:21:26;;;;;;;1.70;1.60;;;;;;;;;;5144220;27;20045;-65
2023/03/18 14:24:12;;;;;;;1.50;1.38;;;;;;;;;;5129120;27;20043;-65
2023/03/18 14:26:38;;;;;;;1.65;1.55;;;;;;;;;;5115235;27;20043;-65
2023/03/18 14:29:04;;;;;;;1.25;1.10;;;;;;;;;;5133855;27;20066;-65
2023/03/18 14:31:31;;;;;;;2.45;2.03;;;;;;;;;;5133663;27;20070;-63
2023/03/18 14:33:57;;;;;;;2.00;1.80;;;;;;;;;;5141830;27;20745;-62
2023/03/18 14:36:47;;;;;;;2.50;2.30;;;;;;;;;;5143102;27;20146;-64
2023/03/18 14:39:31;;;;;;;2.42;1.85;;;;;;;;;;5078908;27;20050;-64
2023/03/18 14:42:00;;;;;;;2.33;1.98;;;;;;;;;;5140227;27;20370;-65
2023/03/18 14:44:45;;;;;;;1.75;1.65;;;;;;;;;;5144489;27;20043;-64
2023/03/18 14:47:17;;;;;;;3.13;1.77;;;;;;;;;;5144576;27;20070;-64